Latest Weather Observations for Cressy

IDT60801

Issued at 4:41 pm EST Thursday 18 July 2019 (issued every 10 minutes, with the page automatically refreshed every 10 minutes)

About weather observations | Map of weather stations | Latest weather observations for TAS | Other Formats
Station Details ID: 091306 Name: CRESSY RESEARCH STATION Lat: -41.73 Lon: 147.08 Height: 148.0 m
Data from the previous 72 hours. | See also: Recent months at Cressy
Date/Time
EST
Temp
°C
App
Temp
°C
Dew
Point
°C
Rel
Hum
%
Delta-T
°C
Wind Press
QNH
hPa
Press
MSL
hPa
Rain since
9am
mm
Dir  Spd
km/h
Gust
km/h
Spd
kts
Gust
kts
18/04:30pm 9.0 3.6 4.4 73 2.0 N 22 32 12 17 - - 0.0
18/04:00pm 9.2 3.1 4.6 73 2.1 N 26 35 14 19 - - 0.0
18/03:30pm 9.2 1.0 4.6 73 2.1 NNW 37 48 20 26 - - 0.0
18/03:00pm 9.2 3.0 4.4 72 2.1 NNW 26 33 14 18 - - 0.0
18/02:30pm 9.6 2.6 4.0 68 2.5 NW 30 43 16 23 - - 0.0
18/02:00pm 9.4 3.5 4.0 69 2.4 NNW 24 33 13 18 - - 0.0
18/01:30pm 9.2 3.3 3.8 69 2.4 NNW 24 33 13 18 - - 0.0
18/01:00pm 9.2 4.0 3.4 67 2.5 NNW 20 28 11 15 - - 0.0
18/12:30pm 9.2 3.4 2.5 63 2.9 NNW 22 30 12 16 - - 0.0
18/12:00pm 9.0 3.9 2.8 65 2.7 NW 19 24 10 13 - - 0.0
18/11:30am 8.7 3.2 1.8 62 2.9 NW 20 26 11 14 - - 0.0
18/11:00am 8.5 4.3 1.9 63 2.8 NNW 13 19 7 10 - - 0.0
18/10:30am 7.8 4.3 1.4 64 2.6 N 9 13 5 7 - - 0.0
18/10:00am 7.5 4.4 1.6 66 2.4 ENE 7 9 4 5 - - 0.0
18/09:30am 7.5 4.0 1.4 65 2.5 NE 9 11 5 6 - - 0.0
18/09:00am 6.6 3.0 0.3 64 2.5 NNE 9 11 5 6 - - 0.0
18/08:30am 6.1 2.8 0.0 65 2.4 N 7 9 4 5 - - 0.0
18/08:00am 5.6 1.5 -0.4 65 2.3 NNW 11 19 6 10 - - 0.0
18/07:30am 5.7 1.9 -0.6 64 2.4 SW 9 17 5 9 - - 0.0
18/07:00am 5.4 0.8 -0.8 64 2.3 E 13 17 7 9 - - 0.0
18/06:30am 7.6 3.3 -1.6 52 3.5 WSW 11 22 6 12 - - 0.0
18/06:00am 7.3 3.1 -0.6 57 3.1 NNE 11 19 6 10 - - 0.0
18/05:30am 7.8 3.3 -0.4 56 3.2 NE 13 19 7 10 - - 0.0
18/05:00am 8.4 4.6 -0.6 53 3.5 SSE 9 17 5 9 - - 0.0
18/04:30am 8.1 3.2 -0.4 55 3.3 WSW 15 24 8 13 - - 0.0
18/04:00am 7.8 2.5 -0.4 56 3.2 SW 17 28 9 15 - - 0.0
18/03:30am 7.9 -0.3 0.2 58 3.1 WSW 33 54 18 29 - - 0.0
18/03:24am 8.4 -0.2 -0.1 55 3.4 WSW 35 54 19 29 - - 0.0
18/03:20am 8.1 -0.2 -0.1 56 3.2 WSW 33 50 18 27 - - 0.0
18/03:00am 7.7 1.9 0.2 59 3.0 NNW 20 32 11 17 - - 0.0
18/02:30am 5.8 0.9 -0.3 65 2.3 N 15 19 8 10 - - 0.0
18/02:00am 7.3 4.1 -0.4 58 3.0 E 6 11 3 6 - - 0.0
18/01:30am 7.1 3.3 -0.6 58 3.0 W 9 17 5 9 - - 0.0
18/01:00am 7.1 2.2 -0.6 58 3.0 SSW 15 28 8 15 - - 0.0
18/12:30am 5.3 0.6 0.9 73 1.7 NW 15 22 8 12 - - 0.0
18/12:00am 5.8 -0.5 1.5 74 1.7 WNW 24 37 13 20 - - 0.0
 
Date/Time
EST
Temp
°C
App
Temp
°C
Dew
Point
°C
Rel
Hum
%
Delta-T
°C
Wind Press
QNH
hPa
Press
MSL
hPa
Rain since
9am
mm
Dir  Spd
km/h
Gust
km/h
Spd
kts
Gust
kts
17/11:30pm 5.9 0.5 2.5 79 1.4 WNW 20 32 11 17 - - 0.0
17/11:00pm 6.0 1.6 2.6 79 1.4 W 15 20 8 11 - - 0.0
17/10:30pm 6.5 1.0 2.0 73 1.8 W 20 32 11 17 - - 0.0
17/10:00pm 5.7 1.4 0.9 71 1.9 WNW 13 20 7 11 - - 0.0
17/09:30pm 5.0 1.4 0.8 74 1.6 W 9 13 5 7 - - 0.0
17/09:03pm 7.2 2.2 1.3 66 2.4 W 17 48 9 26 - - 0.0
17/09:00pm 5.3 1.9 1.6 77 1.5 NNW 9 28 5 15 - - 0.0
17/08:30pm 7.7 2.6 0.7 61 2.8 WSW 17 26 9 14 - - 0.0
17/08:00pm 6.5 1.2 2.0 73 1.8 NW 19 26 10 14 - - 0.0
17/07:30pm 5.9 1.4 2.2 77 1.5 NNW 15 20 8 11 - - 0.0
17/07:00pm 7.1 2.1 1.4 67 2.3 WNW 17 26 9 14 - - 0.0
17/06:30pm 7.6 2.7 1.9 67 2.4 W 17 28 9 15 - - 0.0
17/06:00pm 8.1 0.3 1.5 63 2.7 W 32 61 17 33 - - 0.0
17/05:57pm 8.5 2.2 1.4 61 2.9 W 24 61 13 33 - - 0.0
17/05:30pm 8.5 4.8 2.3 65 2.6 W 11 15 6 8 - - 0.0
17/05:00pm 9.3 5.5 1.7 59 3.2 WSW 11 19 6 10 - - 0.0
17/04:30pm 10.0 2.9 1.6 56 3.5 WSW 28 48 15 26 - - 0.0
17/04:28pm 10.0 3.4 1.9 57 3.4 W 26 48 14 26 - - 0.0
17/04:00pm 10.7 3.0 2.5 57 3.5 W 32 46 17 25 - - 0.0
17/03:30pm 10.7 4.8 5.7 71 2.3 NW 26 37 14 20 - - 0.0
17/03:00pm 10.3 3.3 5.9 74 2.0 NNW 32 43 17 23 - - 0.0
17/02:30pm 10.9 3.9 6.1 72 2.3 NW 32 43 17 23 - - 0.0
17/02:00pm 11.4 2.4 6.5 72 2.3 NNW 43 56 23 30 - - 0.0
17/01:30pm 11.3 2.3 6.2 71 2.4 NNW 43 56 23 30 - - 0.0
17/01:00pm 11.7 3.0 6.2 69 2.6 NNW 41 59 22 32 - - 0.0
17/12:59pm 11.7 3.0 6.0 68 2.7 NNW 41 59 22 32 - - 0.0
17/12:30pm 12.4 3.6 7.1 70 2.6 NNW 43 57 23 31 - - 0.0
17/12:00pm 12.6 3.6 6.4 66 3.0 NW 43 63 23 34 - - 0.0
17/11:48am 12.5 3.4 6.8 68 2.8 NW 44 63 24 34 - - 0.0
17/11:30am 11.5 2.0 6.6 72 2.3 NW 46 59 25 32 - - 0.0
17/11:00am 10.5 2.7 6.6 77 1.8 NNW 37 46 20 25 - - 0.0
17/10:30am 10.0 3.2 6.9 81 1.5 NNW 32 46 17 25 - - 0.0
17/10:00am 9.1 2.6 6.5 84 1.2 N 30 41 16 22 - - 0.0
17/09:30am 9.1 2.0 6.4 83 1.3 N 33 43 18 23 - - 0.0
17/09:00am 8.9 2.7 6.2 83 1.3 N 28 41 15 22 - - 0.0
17/08:30am 7.9 0.7 5.7 86 1.0 NNW 33 41 18 22 - - 0.0
17/08:00am 7.6 0.4 5.9 89 0.8 NNW 33 43 18 23 - - 0.0
17/07:30am 7.3 1.8 5.9 91 0.6 NNW 24 32 13 17 - - 0.0
17/07:00am 6.9 2.3 5.5 91 0.6 N 19 26 10 14 - - 0.0
17/06:30am 6.8 2.0 5.4 91 0.6 N 20 28 11 15 - - 0.0
17/06:00am 7.0 2.2 5.5 90 0.7 N 20 28 11 15 - - 0.0
17/05:30am 7.5 2.0 5.8 89 0.8 N 24 32 13 17 - - 0.0
17/05:00am 7.7 1.8 5.8 88 0.9 N 26 33 14 18 - - 0.0
17/04:30am 8.0 1.4 6.1 88 0.9 N 30 37 16 20 - - 0.0
17/04:00am 8.0 1.8 6.3 89 0.8 NNW 28 35 15 19 - - 0.0
17/03:30am 8.1 2.0 6.4 89 0.8 NNW 28 37 15 20 - - 0.0
17/03:00am 8.1 1.1 6.2 88 0.9 NNW 32 39 17 21 - - 0.0
17/02:30am 8.4 1.5 6.4 87 0.9 NNW 32 41 17 22 - - 0.0
17/02:00am 8.9 3.1 6.2 83 1.3 NW 26 35 14 19 - - 0.0
17/01:30am 8.7 4.7 6.5 86 1.0 N 17 24 9 13 - - 0.0
17/01:00am 8.3 4.2 6.3 87 0.9 NNW 17 26 9 14 - - 0.0
17/12:30am 8.2 4.8 6.0 86 1.0 N 13 15 7 8 - - 0.0
17/12:00am 8.2 5.1 5.7 84 1.1 NNW 11 19 6 10 - - 0.0
 
Date/Time
EST
Temp
°C
App
Temp
°C
Dew
Point
°C
Rel
Hum
%
Delta-T
°C
Wind Press
QNH
hPa
Press
MSL
hPa
Rain since
9am
mm
Dir  Spd
km/h
Gust
km/h
Spd
kts
Gust
kts
16/11:30pm 8.7 5.0 6.2 84 1.2 NW 15 19 8 10 - - 0.0
16/11:00pm 8.9 4.4 6.3 84 1.2 NNW 19 24 10 13 - - 0.0
16/10:30pm 8.8 4.2 6.3 84 1.2 NNW 20 24 11 13 - - 0.0
16/10:00pm 9.3 3.8 6.0 80 1.5 NNW 24 28 13 15 - - 0.0
16/09:30pm 9.4 3.5 5.9 79 1.6 NNW 26 32 14 17 - - 0.0
16/09:00pm 9.2 4.1 5.8 79 1.6 NNW 22 26 12 14 - - 0.0
16/08:30pm 9.5 5.2 5.1 74 2.0 N 17 24 9 13 - - 0.0
16/08:00pm 10.6 6.6 4.9 68 2.6 NW 15 22 8 12 - - 0.0
16/07:30pm 11.6 7.7 3.6 58 3.6 W 13 20 7 11 - - 0.0
16/07:00pm 11.7 7.5 3.7 58 3.6 WSW 15 20 8 11 - - 0.0
16/06:30pm 10.6 8.1 3.6 62 3.1 WNW 6 15 3 8 - - 0.0
16/06:00pm 11.0 8.2 3.3 59 3.4 W 7 13 4 7 - - 0.0
16/05:30pm 11.5 8.7 3.3 57 3.6 WSW 7 13 4 7 - - 0.0
16/05:00pm 12.5 8.6 3.5 54 4.0 W 13 17 7 9 - - 0.0
16/04:30pm 11.6 9.1 4.6 62 3.2 NNE 7 11 4 6 - - 0.0
16/04:00pm 12.8 11.4 5.5 61 3.4 ESE 2 6 1 3 - - 0.0
16/03:30pm 13.5 10.8 3.8 52 4.4 W 7 19 4 10 - - 0.0
16/03:00pm 13.9 10.9 3.9 51 4.6 WSW 9 19 5 10 - - 0.0
16/02:30pm 14.2 9.6 3.9 50 4.7 WSW 17 24 9 13 - - 0.0
16/02:00pm 13.9 9.4 4.2 52 4.5 W 17 30 9 16 - - 0.0
16/01:30pm 14.5 9.6 4.2 50 4.8 W 19 30 10 16 - - 0.0
16/01:00pm 13.8 9.0 4.4 53 4.4 WSW 19 32 10 17 - - 0.0
16/12:30pm 13.1 9.7 5.8 61 3.5 W 13 19 7 10 - - 0.0
16/12:00pm 12.6 8.6 5.1 60 3.5 W 15 20 8 11 - - 0.0
16/11:30am 12.9 11.3 6.3 64 3.2 E 4 7 2 4 - - 0.0
16/11:00am 11.7 10.2 6.8 72 2.4 NNE 4 7 2 4 - - 0.0
16/10:30am 10.9 8.8 6.5 74 2.1 NE 7 9 4 5 - - 0.0
16/10:00am 9.8 6.4 6.0 77 1.8 E 13 19 7 10 - - 0.0
16/09:30am 8.7 5.8 4.9 77 1.7 ESE 9 20 5 11 - - 0.0
16/09:00am 8.9 6.0 4.7 75 1.9 NNE 9 15 5 8 - - 0.0
16/08:30am 8.1 5.2 4.5 78 1.6 NE 9 13 5 7 - - 0.0
16/08:00am 8.0 4.6 4.0 76 1.7 NE 11 15 6 8 - - 0.0
16/07:30am 9.1 5.3 3.9 70 2.3 NNW 13 24 7 13 - - 0.0
16/07:00am 9.6 6.9 3.8 67 2.6 WNW 7 19 4 10 - - 0.0
16/06:30am 9.8 5.6 3.8 66 2.7 NW 15 22 8 12 - - 0.0
16/06:00am 12.0 6.8 3.5 56 3.8 WSW 20 39 11 21 - - 0.0
16/05:30am 9.2 5.4 4.0 70 2.3 N 13 20 7 11 - - 0.0
16/05:00am 9.3 3.5 4.3 71 2.2 N 24 41 13 22 - - 0.0
16/04:30am 10.2 5.2 4.6 68 2.5 N 20 30 11 16 - - 0.0
16/04:00am 9.8 5.0 4.6 70 2.3 N 19 28 10 15 - - 0.0
16/03:30am 10.1 5.7 4.5 68 2.5 NNW 17 28 9 15 - - 0.0
16/03:00am 9.8 6.1 4.6 70 2.3 N 13 19 7 10 - - 0.0
16/02:30am 11.5 6.4 4.0 60 3.4 W 20 28 11 15 - - 0.0
16/02:00am 11.0 6.1 4.2 63 3.1 W 19 28 10 15 - - 0.0
16/01:30am 11.8 6.3 3.8 58 3.6 W 22 30 12 16 - - 0.0
16/01:00am 11.7 5.4 4.0 59 3.5 W 26 37 14 20 - - 0.0
16/12:30am 12.1 6.6 4.1 58 3.6 W 22 28 12 15 - - 0.0
16/12:00am 12.6 8.0 3.8 55 4.0 WNW 17 28 9 15 - - 0.0
 
Date/Time
EST
Temp
°C
App
Temp
°C
Dew
Point
°C
Rel
Hum
%
Delta-T
°C
Wind Press
QNH
hPa
Press
MSL
hPa
Rain since
9am
mm
Dir  Spd
km/h
Gust
km/h
Spd
kts
Gust
kts
15/11:30pm 13.0 7.1 3.9 54 4.1 WSW 24 39 13 21 - - 0.0
15/11:00pm 12.9 7.9 3.8 54 4.1 WSW 19 32 10 17 - - 0.0
15/10:30pm 12.9 8.0 4.1 55 4.0 WNW 19 30 10 16 - - 0.0
15/10:00pm 13.0 8.8 3.9 54 4.1 WNW 15 26 8 14 - - 0.0
15/09:49pm 13.3 8.3 3.7 52 4.4 WNW 19 46 10 25 - - 0.0
15/09:30pm 13.5 10.0 3.6 51 4.5 NNW 11 17 6 9 - - 0.0
15/09:00pm 13.1 8.6 4.0 54 4.2 W 17 26 9 14 - - 0.0
15/08:30pm 13.3 9.6 4.2 54 4.2 NE 13 28 7 15 - - 0.0
15/08:00pm 13.3 9.2 4.2 54 4.2 N 15 32 8 17 - - 0.0
15/07:50pm 13.6 8.5 4.2 53 4.3 NNW 20 48 11 26 - - 0.0
15/07:30pm 13.1 8.0 4.3 55 4.0 WNW 20 32 11 17 - - 0.0
15/07:00pm 13.2 7.7 4.1 54 4.2 NW 22 44 12 24 - - 0.0
15/06:30pm 12.1 6.3 4.6 60 3.4 N 24 33 13 18 - - 0.0
15/06:00pm 12.5 9.1 4.2 57 3.8 NW 11 20 6 11 - - 0.0
15/05:30pm 13.1 9.3 4.0 54 4.2 N 13 32 7 17 - - 0.0
15/05:00pm 12.1 8.2 5.3 63 3.2 WNW 15 22 8 12 - - 0.0

Other formats

Comma delimited format used in spreadsheet applications
http://www.bom.gov.au/fwo/IDT60801/IDT60801.95969.axf

JavaScript Object Notation format (JSON) in row-major order
http://www.bom.gov.au/fwo/IDT60801/IDT60801.95969.json

Data quality

Most of these data are generated automatically and are frequently updated. Quality checks on data are not normally performed. It is possible for incorrect values to appear. Refer to information at About Latest Weather Observations and please check the disclaimer before using these data.